sensor_id;sensor_type;location;lat;lon;timestamp;pressure;altitude;pressure_sealevel;temperature;humidity
69528;BME280;57136;51.986;4.468;2023-02-10T00:00:02;103707.50;;;-0.41;100.00
69528;BME280;57136;51.986;4.468;2023-02-10T00:02:29;103701.00;;;-0.38;100.00
69528;BME280;57136;51.986;4.468;2023-02-10T00:04:54;103702.94;;;-0.26;100.00
69528;BME280;57136;51.986;4.468;2023-02-10T00:07:20;103710.91;;;-0.14;100.00
69528;BME280;57136;51.986;4.468;2023-02-10T00:09:45;103696.94;;;0.01;100.00
69528;BME280;57136;51.986;4.468;2023-02-10T00:12:11;103696.19;;;0.11;100.00
69528;BME280;57136;51.986;4.468;2023-02-10T00:14:37;103694.78;;;0.14;100.00
69528;BME280;57136;51.986;4.468;2023-02-10T00:17:03;103696.88;;;0.19;100.00
69528;BME280;57136;51.986;4.468;2023-02-10T00:19:29;103686.47;;;0.17;100.00
69528;BME280;57136;51.986;4.468;2023-02-10T00:21:56;103689.91;;;0.26;100.00
69528;BME280;57136;51.986;4.468;2023-02-10T00:24:23;103688.47;;;0.39;100.00
69528;BME280;57136;51.986;4.468;2023-02-10T00:26:49;103696.91;;;0.66;100.00
69528;BME280;57136;51.986;4.468;2023-02-10T00:29:15;103680.78;;;0.96;100.00
69528;BME280;57136;51.986;4.468;2023-02-10T00:31:41;103671.72;;;1.29;100.00
69528;BME280;57136;51.986;4.468;2023-02-10T00:34:10;103665.00;;;1.51;100.00
69528;BME280;57136;51.986;4.468;2023-02-10T00:36:36;103660.91;;;1.63;100.00
69528;BME280;57136;51.986;4.468;2023-02-10T00:39:01;103671.88;;;1.71;100.00
69528;BME280;57136;51.986;4.468;2023-02-10T00:41:27;103669.22;;;1.79;100.00
69528;BME280;57136;51.986;4.468;2023-02-10T00:43:52;103662.91;;;1.86;100.00
69528;BME280;57136;51.986;4.468;2023-02-10T00:46:19;103667.41;;;1.89;100.00
69528;BME280;57136;51.986;4.468;2023-02-10T00:48:45;103660.47;;;1.77;100.00
69528;BME280;57136;51.986;4.468;2023-02-10T00:51:12;103666.59;;;1.69;100.00
69528;BME280;57136;51.986;4.468;2023-02-10T00:53:38;103667.66;;;1.71;100.00
69528;BME280;57136;51.986;4.468;2023-02-10T00:56:03;103666.97;;;1.63;100.00
69528;BME280;57136;51.986;4.468;2023-02-10T00:58:29;103671.97;;;1.52;100.00
69528;BME280;57136;51.986;4.468;2023-02-10T01:00:55;103675.38;;;1.42;100.00
69528;BME280;57136;51.986;4.468;2023-02-10T01:03:20;103682.03;;;1.40;100.00
69528;BME280;57136;51.986;4.468;2023-02-10T01:05:46;103684.97;;;1.34;100.00
69528;BME280;57136;51.986;4.468;2023-02-10T01:08:12;103688.53;;;1.26;100.00
69528;BME280;57136;51.986;4.468;2023-02-10T01:10:37;103683.47;;;1.17;100.00
69528;BME280;57136;51.986;4.468;2023-02-10T01:13:05;103680.72;;;1.05;100.00
69528;BME280;57136;51.986;4.468;2023-02-10T01:15:31;103684.78;;;0.93;100.00
69528;BME280;57136;51.986;4.468;2023-02-10T01:17:56;103693.78;;;0.79;100.00
69528;BME280;57136;51.986;4.468;2023-02-10T01:20:23;103689.06;;;0.64;100.00
69528;BME280;57136;51.986;4.468;2023-02-10T01:22:48;103687.72;;;0.59;100.00
69528;BME280;57136;51.986;4.468;2023-02-10T01:25:14;103693.06;;;0.52;100.00
69528;BME280;57136;51.986;4.468;2023-02-10T01:27:39;103695.47;;;0.50;100.00
69528;BME280;57136;51.986;4.468;2023-02-10T01:30:05;103687.72;;;0.40;100.00
69528;BME280;57136;51.986;4.468;2023-02-10T01:32:30;103685.06;;;0.29;100.00
69528;BME280;57136;51.986;4.468;2023-02-10T01:34:55;103686.00;;;0.21;100.00
69528;BME280;57136;51.986;4.468;2023-02-10T01:37:21;103703.53;;;0.17;100.00
69528;BME280;57136;51.986;4.468;2023-02-10T01:39:46;103704.13;;;0.14;100.00
69528;BME280;57136;51.986;4.468;2023-02-10T01:42:13;103709.25;;;0.14;100.00
69528;BME280;57136;51.986;4.468;2023-02-10T01:47:04;103711.81;;;0.14;100.00
69528;BME280;57136;51.986;4.468;2023-02-10T01:49:33;103712.31;;;0.10;100.00
69528;BME280;57136;51.986;4.468;2023-02-10T01:52:02;103709.78;;;0.01;100.00
69528;BME280;57136;51.986;4.468;2023-02-10T01:54:38;103721.41;;;-0.03;100.00
69528;BME280;57136;51.986;4.468;2023-02-10T01:57:04;103719.59;;;-0.04;100.00
69528;BME280;57136;51.986;4.468;2023-02-10T01:59:32;103720.81;;;-0.09;100.00
69528;BME280;57136;51.986;4.468;2023-02-10T02:01:59;103710.00;;;-0.15;100.00
69528;BME280;57136;51.986;4.468;2023-02-10T02:04:28;103711.97;;;-0.21;100.00
69528;BME280;57136;51.986;4.468;2023-02-10T02:06:54;103706.84;;;-0.21;100.00
69528;BME280;57136;51.986;4.468;2023-02-10T02:09:19;103706.72;;;-0.32;100.00
69528;BME280;57136;51.986;4.468;2023-02-10T02:15:03;103695.50;;;-0.14;100.00
69528;BME280;57136;51.986;4.468;2023-02-10T02:17:40;103695.44;;;0.03;100.00
69528;BME280;57136;51.986;4.468;2023-02-10T02:20:30;103689.44;;;0.31;100.00
69528;BME280;57136;51.986;4.468;2023-02-10T02:24:26;103698.97;;;0.70;100.00
69528;BME280;57136;51.986;4.468;2023-02-10T02:32:33;103696.56;;;1.39;100.00
69528;BME280;57136;51.986;4.468;2023-02-10T02:35:13;103693.50;;;1.43;100.00
69528;BME280;57136;51.986;4.468;2023-02-10T02:37:42;103693.72;;;1.36;100.00
69528;BME280;57136;51.986;4.468;2023-02-10T02:40:11;103706.03;;;1.30;100.00
69528;BME280;57136;51.986;4.468;2023-02-10T02:42:37;103717.31;;;1.22;100.00
69528;BME280;57136;51.986;4.468;2023-02-10T02:45:06;103732.16;;;1.15;100.00
69528;BME280;57136;51.986;4.468;2023-02-10T02:47:52;103725.81;;;1.12;100.00
69528;BME280;57136;51.986;4.468;2023-02-10T02:50:22;103730.44;;;1.06;100.00
69528;BME280;57136;51.986;4.468;2023-02-10T02:55:31;103724.41;;;0.58;100.00
69528;BME280;57136;51.986;4.468;2023-02-10T02:58:15;103728.00;;;0.41;100.00
69528;BME280;57136;51.986;4.468;2023-02-10T03:00:44;103723.34;;;0.37;100.00
69528;BME280;57136;51.986;4.468;2023-02-10T03:03:11;103734.50;;;0.37;100.00
69528;BME280;57136;51.986;4.468;2023-02-10T03:05:36;103731.97;;;0.28;100.00
69528;BME280;57136;51.986;4.468;2023-02-10T03:08:03;103731.56;;;0.24;100.00
69528;BME280;57136;51.986;4.468;2023-02-10T03:10:28;103733.72;;;0.10;100.00
69528;BME280;57136;51.986;4.468;2023-02-10T03:12:53;103737.09;;;0.01;100.00
69528;BME280;57136;51.986;4.468;2023-02-10T03:15:19;103736.03;;;-0.02;100.00
69528;BME280;57136;51.986;4.468;2023-02-10T03:17:44;103738.13;;;0.03;100.00
69528;BME280;57136;51.986;4.468;2023-02-10T03:20:10;103737.22;;;0.11;100.00
69528;BME280;57136;51.986;4.468;2023-02-10T03:22:36;103738.03;;;0.20;100.00
69528;BME280;57136;51.986;4.468;2023-02-10T03:25:01;103736.06;;;0.26;100.00
69528;BME280;57136;51.986;4.468;2023-02-10T03:27:27;103737.28;;;0.21;100.00
69528;BME280;57136;51.986;4.468;2023-02-10T03:29:52;103734.72;;;0.21;100.00
69528;BME280;57136;51.986;4.468;2023-02-10T03:32:18;103731.75;;;0.44;100.00
69528;BME280;57136;51.986;4.468;2023-02-10T03:34:44;103734.88;;;0.79;100.00
69528;BME280;57136;51.986;4.468;2023-02-10T03:37:10;103744.84;;;1.14;100.00
69528;BME280;57136;51.986;4.468;2023-02-10T03:39:35;103738.44;;;1.38;100.00
69528;BME280;57136;51.986;4.468;2023-02-10T03:42:00;103737.91;;;1.61;100.00
69528;BME280;57136;51.986;4.468;2023-02-10T03:44:26;103725.84;;;1.71;100.00
69528;BME280;57136;51.986;4.468;2023-02-10T03:46:51;103725.75;;;1.69;100.00
69528;BME280;57136;51.986;4.468;2023-02-10T03:49:16;103721.91;;;1.74;100.00
69528;BME280;57136;51.986;4.468;2023-02-10T03:51:43;103722.94;;;1.76;100.00
69528;BME280;57136;51.986;4.468;2023-02-10T03:54:08;103730.88;;;1.69;100.00
69528;BME280;57136;51.986;4.468;2023-02-10T03:56:33;103728.44;;;1.71;100.00
69528;BME280;57136;51.986;4.468;2023-02-10T03:59:02;103721.47;;;1.70;100.00
69528;BME280;57136;51.986;4.468;2023-02-10T04:01:28;103721.34;;;1.68;100.00
69528;BME280;57136;51.986;4.468;2023-02-10T04:03:53;103727.66;;;1.72;100.00
69528;BME280;57136;51.986;4.468;2023-02-10T04:06:18;103722.94;;;1.76;100.00
69528;BME280;57136;51.986;4.468;2023-02-10T04:08:44;103727.94;;;1.75;100.00
69528;BME280;57136;51.986;4.468;2023-02-10T04:11:10;103727.59;;;1.81;100.00
69528;BME280;57136;51.986;4.468;2023-02-10T04:13:37;103724.09;;;1.80;100.00
69528;BME280;57136;51.986;4.468;2023-02-10T04:16:04;103727.44;;;1.79;100.00
69528;BME280;57136;51.986;4.468;2023-02-10T04:18:30;103724.50;;;1.85;100.00
69528;BME280;57136;51.986;4.468;2023-02-10T04:20:57;103734.81;;;1.95;100.00
69528;BME280;57136;51.986;4.468;2023-02-10T04:23:23;103736.66;;;2.06;100.00
69528;BME280;57136;51.986;4.468;2023-02-10T04:25:48;103738.09;;;2.13;100.00
69528;BME280;57136;51.986;4.468;2023-02-10T04:28:13;103740.81;;;2.25;100.00
69528;BME280;57136;51.986;4.468;2023-02-10T04:30:38;103737.97;;;2.22;100.00
69528;BME280;57136;51.986;4.468;2023-02-10T04:33:04;103741.19;;;2.30;100.00
69528;BME280;57136;51.986;4.468;2023-02-10T04:35:29;103735.91;;;2.38;100.00
69528;BME280;57136;51.986;4.468;2023-02-10T04:37:55;103741.31;;;2.42;100.00
69528;BME280;57136;51.986;4.468;2023-02-10T04:40:21;103742.88;;;2.39;100.00
69528;BME280;57136;51.986;4.468;2023-02-10T04:42:46;103735.28;;;2.31;100.00
69528;BME280;57136;51.986;4.468;2023-02-10T04:45:12;103731.00;;;2.21;100.00
69528;BME280;57136;51.986;4.468;2023-02-10T04:47:37;103725.84;;;2.10;100.00
69528;BME280;57136;51.986;4.468;2023-02-10T04:50:02;103727.25;;;2.07;100.00
69528;BME280;57136;51.986;4.468;2023-02-10T04:52:29;103728.59;;;2.22;100.00
69528;BME280;57136;51.986;4.468;2023-02-10T04:54:54;103730.53;;;2.35;100.00
69528;BME280;57136;51.986;4.468;2023-02-10T04:57:20;103733.22;;;2.37;100.00
69528;BME280;57136;51.986;4.468;2023-02-10T04:59:45;103740.31;;;2.29;100.00
69528;BME280;57136;51.986;4.468;2023-02-10T05:02:11;103736.28;;;2.12;100.00
69528;BME280;57136;51.986;4.468;2023-02-10T05:04:36;103727.66;;;2.22;100.00
69528;BME280;57136;51.986;4.468;2023-02-10T05:07:01;103729.22;;;2.20;100.00
69528;BME280;57136;51.986;4.468;2023-02-10T05:09:27;103726.94;;;2.33;100.00
69528;BME280;57136;51.986;4.468;2023-02-10T05:11:52;103736.69;;;2.37;100.00
69528;BME280;57136;51.986;4.468;2023-02-10T05:14:18;103729.63;;;2.35;100.00
69528;BME280;57136;51.986;4.468;2023-02-10T05:16:43;103730.38;;;2.34;100.00
69528;BME280;57136;51.986;4.468;2023-02-10T05:19:09;103723.94;;;2.29;100.00
69528;BME280;57136;51.986;4.468;2023-02-10T05:21:35;103724.44;;;2.14;100.00
69528;BME280;57136;51.986;4.468;2023-02-10T05:24:00;103725.84;;;2.10;100.00
69528;BME280;57136;51.986;4.468;2023-02-10T05:26:26;103720.06;;;2.13;100.00
69528;BME280;57136;51.986;4.468;2023-02-10T05:28:51;103720.22;;;2.25;100.00
69528;BME280;57136;51.986;4.468;2023-02-10T05:31:16;103728.59;;;2.22;100.00
69528;BME280;57136;51.986;4.468;2023-02-10T05:33:42;103732.16;;;2.14;100.00
69528;BME280;57136;51.986;4.468;2023-02-10T05:36:07;103735.16;;;2.29;100.00
69528;BME280;57136;51.986;4.468;2023-02-10T05:38:32;103736.97;;;2.30;100.00
69528;BME280;57136;51.986;4.468;2023-02-10T05:40:58;103726.63;;;2.20;100.00
69528;BME280;57136;51.986;4.468;2023-02-10T05:43:23;103726.59;;;2.09;100.00
69528;BME280;57136;51.986;4.468;2023-02-10T05:45:49;103701.91;;;2.01;100.00
69528;BME280;57136;51.986;4.468;2023-02-10T05:48:14;103697.53;;;2.10;100.00
69528;BME280;57136;51.986;4.468;2023-02-10T05:50:39;103703.22;;;2.06;100.00
69528;BME280;57136;51.986;4.468;2023-02-10T05:53:06;103709.41;;;2.08;100.00
69528;BME280;57136;51.986;4.468;2023-02-10T05:55:32;103710.53;;;2.02;100.00
69528;BME280;57136;51.986;4.468;2023-02-10T05:57:57;103707.69;;;1.99;100.00
69528;BME280;57136;51.986;4.468;2023-02-10T06:00:23;103708.31;;;1.96;100.00
69528;BME280;57136;51.986;4.468;2023-02-10T06:02:48;103715.00;;;1.94;100.00
69528;BME280;57136;51.986;4.468;2023-02-10T06:05:14;103723.50;;;1.93;100.00
69528;BME280;57136;51.986;4.468;2023-02-10T06:07:39;103730.31;;;1.92;100.00
69528;BME280;57136;51.986;4.468;2023-02-10T06:10:06;103738.44;;;1.97;100.00
69528;BME280;57136;51.986;4.468;2023-02-10T06:12:31;103743.06;;;2.01;100.00
69528;BME280;57136;51.986;4.468;2023-02-10T06:14:57;103740.34;;;2.00;100.00
69528;BME280;57136;51.986;4.468;2023-02-10T06:17:22;103731.34;;;1.94;100.00
69528;BME280;57136;51.986;4.468;2023-02-10T06:19:49;103728.75;;;1.84;100.00
69528;BME280;57136;51.986;4.468;2023-02-10T06:22:15;103733.63;;;1.81;100.00
69528;BME280;57136;51.986;4.468;2023-02-10T06:24:40;103731.31;;;1.84;100.00
69528;BME280;57136;51.986;4.468;2023-02-10T06:27:06;103739.91;;;1.85;100.00
69528;BME280;57136;51.986;4.468;2023-02-10T06:29:32;103756.97;;;1.74;100.00
69528;BME280;57136;51.986;4.468;2023-02-10T06:31:57;103763.66;;;1.72;100.00
69528;BME280;57136;51.986;4.468;2023-02-10T06:34:23;103761.72;;;1.69;100.00
69528;BME280;57136;51.986;4.468;2023-02-10T06:36:48;103773.66;;;1.69;100.00
69528;BME280;57136;51.986;4.468;2023-02-10T06:39:14;103770.59;;;1.73;100.00
69528;BME280;57136;51.986;4.468;2023-02-10T06:41:40;103781.16;;;1.76;100.00
69528;BME280;57136;51.986;4.468;2023-02-10T06:44:07;103779.22;;;1.73;100.00
69528;BME280;57136;51.986;4.468;2023-02-10T06:46:32;103771.25;;;1.70;100.00
69528;BME280;57136;51.986;4.468;2023-02-10T06:48:58;103774.38;;;1.76;100.00
69528;BME280;57136;51.986;4.468;2023-02-10T06:51:24;103779.00;;;1.81;100.00
69528;BME280;57136;51.986;4.468;2023-02-10T06:53:51;103771.63;;;1.75;100.00
69528;BME280;57136;51.986;4.468;2023-02-10T06:56:16;103759.81;;;1.77;100.00
69528;BME280;57136;51.986;4.468;2023-02-10T06:58:41;103754.91;;;1.70;100.00
69528;BME280;57136;51.986;4.468;2023-02-10T07:01:08;103754.56;;;1.75;100.00
69528;BME280;57136;51.986;4.468;2023-02-10T07:03:34;103742.97;;;1.70;100.00
69528;BME280;57136;51.986;4.468;2023-02-10T07:06:00;103745.91;;;1.64;100.00
69528;BME280;57136;51.986;4.468;2023-02-10T07:08:26;103743.56;;;1.68;100.00
69528;BME280;57136;51.986;4.468;2023-02-10T07:10:51;103745.16;;;1.66;100.00
69528;BME280;57136;51.986;4.468;2023-02-10T07:13:16;103742.41;;;1.64;100.00
69528;BME280;57136;51.986;4.468;2023-02-10T07:15:42;103748.69;;;1.57;100.00
69528;BME280;57136;51.986;4.468;2023-02-10T07:18:07;103750.22;;;1.55;100.00
69528;BME280;57136;51.986;4.468;2023-02-10T07:20:33;103768.72;;;1.51;100.00
69528;BME280;57136;51.986;4.468;2023-02-10T07:22:58;103771.34;;;1.61;100.00
69528;BME280;57136;51.986;4.468;2023-02-10T07:25:23;103768.00;;;1.62;100.00
69528;BME280;57136;51.986;4.468;2023-02-10T07:27:49;103777.69;;;1.75;100.00
69528;BME280;57136;51.986;4.468;2023-02-10T07:30:14;103792.75;;;1.81;100.00
69528;BME280;57136;51.986;4.468;2023-02-10T07:32:40;103795.34;;;1.81;100.00
69528;BME280;57136;51.986;4.468;2023-02-10T07:35:07;103803.16;;;1.83;100.00
69528;BME280;57136;51.986;4.468;2023-02-10T07:37:32;103795.81;;;1.77;100.00
69528;BME280;57136;51.986;4.468;2023-02-10T07:39:57;103799.25;;;1.67;100.00
69528;BME280;57136;51.986;4.468;2023-02-10T07:42:23;103788.00;;;1.75;100.00
69528;BME280;57136;51.986;4.468;2023-02-10T07:44:48;103776.38;;;1.70;100.00
69528;BME280;57136;51.986;4.468;2023-02-10T07:47:14;103785.81;;;1.80;100.00
69528;BME280;57136;51.986;4.468;2023-02-10T07:49:39;103789.31;;;1.81;100.00
69528;BME280;57136;51.986;4.468;2023-02-10T07:52:04;103790.09;;;1.90;100.00
69528;BME280;57136;51.986;4.468;2023-02-10T07:54:30;103787.56;;;2.00;100.00
69528;BME280;57136;51.986;4.468;2023-02-10T07:56:58;103795.50;;;1.93;100.00
69528;BME280;57136;51.986;4.468;2023-02-10T07:59:23;103789.09;;;1.98;100.00
69528;BME280;57136;51.986;4.468;2023-02-10T08:01:49;103797.88;;;2.10;100.00
69528;BME280;57136;51.986;4.468;2023-02-10T08:04:15;103805.63;;;2.21;100.00
69528;BME280;57136;51.986;4.468;2023-02-10T08:06:40;103804.38;;;2.26;100.00
69528;BME280;57136;51.986;4.468;2023-02-10T08:09:05;103804.47;;;2.17;100.00
69528;BME280;57136;51.986;4.468;2023-02-10T08:11:32;103817.34;;;2.28;100.00
69528;BME280;57136;51.986;4.468;2023-02-10T08:13:57;103812.19;;;2.28;100.00
69528;BME280;57136;51.986;4.468;2023-02-10T08:16:23;103810.66;;;2.19;100.00
69528;BME280;57136;51.986;4.468;2023-02-10T08:18:48;103809.34;;;2.24;100.00
69528;BME280;57136;51.986;4.468;2023-02-10T08:21:14;103804.22;;;2.14;100.00
69528;BME280;57136;51.986;4.468;2023-02-10T08:23:39;103804.22;;;2.24;100.00
69528;BME280;57136;51.986;4.468;2023-02-10T08:26:07;103804.47;;;2.28;100.00
69528;BME280;57136;51.986;4.468;2023-02-10T08:28:34;103807.06;;;2.17;100.00
69528;BME280;57136;51.986;4.468;2023-02-10T08:31:01;103798.69;;;2.20;100.00
69528;BME280;57136;51.986;4.468;2023-02-10T08:33:26;103802.94;;;2.30;100.00
69528;BME280;57136;51.986;4.468;2023-02-10T08:35:52;103817.41;;;2.48;100.00
69528;BME280;57136;51.986;4.468;2023-02-10T08:38:18;103824.13;;;2.67;100.00
69528;BME280;57136;51.986;4.468;2023-02-10T08:40:43;103823.50;;;2.59;100.00
69528;BME280;57136;51.986;4.468;2023-02-10T08:43:08;103820.25;;;2.62;100.00
69528;BME280;57136;51.986;4.468;2023-02-10T08:45:34;103800.94;;;2.46;100.00
69528;BME280;57136;51.986;4.468;2023-02-10T08:47:59;103797.34;;;2.44;100.00
69528;BME280;57136;51.986;4.468;2023-02-10T08:50:27;103805.97;;;2.55;100.00
69528;BME280;57136;51.986;4.468;2023-02-10T08:52:52;103800.81;;;2.65;100.00
69528;BME280;57136;51.986;4.468;2023-02-10T08:55:18;103805.72;;;2.73;100.00
69528;BME280;57136;51.986;4.468;2023-02-10T08:57:43;103815.66;;;2.99;100.00
69528;BME280;57136;51.986;4.468;2023-02-10T09:00:09;103805.22;;;3.18;100.00
69528;BME280;57136;51.986;4.468;2023-02-10T09:02:34;103813.06;;;3.30;100.00
69528;BME280;57136;51.986;4.468;2023-02-10T09:05:01;103802.28;;;3.56;100.00
69528;BME280;57136;51.986;4.468;2023-02-10T09:07:27;103813.00;;;3.40;100.00
69528;BME280;57136;51.986;4.468;2023-02-10T09:09:52;103810.59;;;3.42;100.00
69528;BME280;57136;51.986;4.468;2023-02-10T09:12:18;103806.97;;;3.83;100.00
69528;BME280;57136;51.986;4.468;2023-02-10T09:14:43;103812.94;;;4.48;100.00
69528;BME280;57136;51.986;4.468;2023-02-10T09:17:08;103810.94;;;4.78;100.00
69528;BME280;57136;51.986;4.468;2023-02-10T09:19:37;103826.56;;;5.50;100.00
69528;BME280;57136;51.986;4.468;2023-02-10T09:22:04;103811.81;;;5.84;100.00
69528;BME280;57136;51.986;4.468;2023-02-10T09:24:31;103810.19;;;6.22;100.00
69528;BME280;57136;51.986;4.468;2023-02-10T09:26:56;103811.16;;;6.62;100.00
69528;BME280;57136;51.986;4.468;2023-02-10T09:29:22;103825.91;;;7.01;100.00
69528;BME280;57136;51.986;4.468;2023-02-10T09:31:47;103826.41;;;6.82;100.00
69528;BME280;57136;51.986;4.468;2023-02-10T09:34:12;103836.25;;;7.27;100.00
69528;BME280;57136;51.986;4.468;2023-02-10T09:36:38;103821.19;;;6.57;100.00
69528;BME280;57136;51.986;4.468;2023-02-10T09:39:04;103825.09;;;6.64;100.00
69528;BME280;57136;51.986;4.468;2023-02-10T09:41:42;103814.94;;;6.16;100.00
69528;BME280;57136;51.986;4.468;2023-02-10T09:44:22;103821.47;;;6.11;100.00
69528;BME280;57136;51.986;4.468;2023-02-10T09:54:47;103824.19;;;6.12;100.00
69528;BME280;57136;51.986;4.468;2023-02-10T09:57:18;103812.09;;;6.25;100.00
69528;BME280;57136;51.986;4.468;2023-02-10T09:59:46;103806.69;;;6.22;100.00
69528;BME280;57136;51.986;4.468;2023-02-10T10:02:24;103808.53;;;6.48;100.00
69528;BME280;57136;51.986;4.468;2023-02-10T10:04:53;103822.78;;;6.55;100.00
69528;BME280;57136;51.986;4.468;2023-02-10T10:07:27;103817.34;;;6.89;100.00
69528;BME280;57136;51.986;4.468;2023-02-10T10:10:04;103823.41;;;6.89;99.28
69528;BME280;57136;51.986;4.468;2023-02-10T10:12:30;103825.06;;;6.75;99.05
69528;BME280;57136;51.986;4.468;2023-02-10T10:14:56;103814.97;;;6.67;97.90
69528;BME280;57136;51.986;4.468;2023-02-10T10:22:47;103825.19;;;7.70;93.14
69528;BME280;57136;51.986;4.468;2023-02-10T10:31:14;103804.09;;;8.34;86.29
69528;BME280;57136;51.986;4.468;2023-02-10T10:33:53;103792.75;;;8.47;85.96
69528;BME280;57136;51.986;4.468;2023-02-10T10:36:27;103795.91;;;8.56;83.81
69528;BME280;57136;51.986;4.468;2023-02-10T10:39:03;103808.16;;;8.87;82.71
69528;BME280;57136;51.986;4.468;2023-02-10T10:41:37;103806.06;;;8.66;83.08
69528;BME280;57136;51.986;4.468;2023-02-10T10:44:03;103800.34;;;8.87;83.15
69528;BME280;57136;51.986;4.468;2023-02-10T10:46:49;103795.25;;;8.74;82.51
69528;BME280;57136;51.986;4.468;2023-02-10T10:49:18;103800.66;;;8.92;82.07
69528;BME280;57136;51.986;4.468;2023-02-10T10:51:43;103809.72;;;8.98;80.45
69528;BME280;57136;51.986;4.468;2023-02-10T10:54:16;103809.28;;;8.62;80.89
69528;BME280;57136;51.986;4.468;2023-02-10T10:56:53;103802.25;;;8.75;82.25
69528;BME280;57136;51.986;4.468;2023-02-10T10:59:48;103804.28;;;8.65;83.64
69528;BME280;57136;51.986;4.468;2023-02-10T11:02:22;103801.63;;;8.22;85.55
69528;BME280;57136;51.986;4.468;2023-02-10T11:05:04;103789.53;;;8.22;86.30
69528;BME280;57136;51.986;4.468;2023-02-10T11:07:32;103778.00;;;8.32;86.63
69528;BME280;57136;51.986;4.468;2023-02-10T11:09:59;103778.22;;;8.64;85.65
69528;BME280;57136;51.986;4.468;2023-02-10T11:12:45;103783.38;;;8.35;85.93
69528;BME280;57136;51.986;4.468;2023-02-10T11:17:57;103787.16;;;7.43;90.58
69528;BME280;57136;51.986;4.468;2023-02-10T11:20:27;103781.50;;;7.22;92.29
69528;BME280;57136;51.986;4.468;2023-02-10T11:23:16;103777.56;;;7.69;92.75
69528;BME280;57136;51.986;4.468;2023-02-10T11:25:46;103776.88;;;8.14;90.12
69528;BME280;57136;51.986;4.468;2023-02-10T11:28:23;103778.47;;;8.68;87.90
69528;BME280;57136;51.986;4.468;2023-02-10T11:30:56;103778.19;;;8.79;86.18
69528;BME280;57136;51.986;4.468;2023-02-10T11:33:26;103777.94;;;8.74;84.97
69528;BME280;57136;51.986;4.468;2023-02-10T11:35:57;103769.41;;;9.07;85.55
69528;BME280;57136;51.986;4.468;2023-02-10T11:38:26;103764.88;;;8.88;84.96
69528;BME280;57136;51.986;4.468;2023-02-10T11:41:01;103761.53;;;8.90;84.80
69528;BME280;57136;51.986;4.468;2023-02-10T11:43:35;103762.16;;;9.01;83.61
69528;BME280;57136;51.986;4.468;2023-02-10T11:46:04;103751.66;;;9.61;82.40
69528;BME280;57136;51.986;4.468;2023-02-10T11:48:30;103754.78;;;9.87;81.34
69528;BME280;57136;51.986;4.468;2023-02-10T11:51:16;103756.25;;;10.15;78.58
69528;BME280;57136;51.986;4.468;2023-02-10T11:53:44;103752.88;;;10.49;78.08
69528;BME280;57136;51.986;4.468;2023-02-10T11:56:35;103741.56;;;10.67;76.54
69528;BME280;57136;51.986;4.468;2023-02-10T11:59:29;103732.75;;;11.17;74.95
69528;BME280;57136;51.986;4.468;2023-02-10T12:02:12;103736.47;;;11.41;72.77
69528;BME280;57136;51.986;4.468;2023-02-10T12:12:38;103734.31;;;11.88;68.65
69528;BME280;57136;51.986;4.468;2023-02-10T12:18:10;103729.63;;;11.43;67.28
69528;BME280;57136;51.986;4.468;2023-02-10T12:37:50;103722.31;;;11.35;67.10
69528;BME280;57136;51.986;4.468;2023-02-10T12:46:06;103730.38;;;10.01;68.60
69528;BME280;57136;51.986;4.468;2023-02-10T12:49:05;103727.28;;;10.09;70.70
69528;BME280;57136;51.986;4.468;2023-02-10T12:57:52;103720.38;;;10.42;72.26
69528;BME280;57136;51.986;4.468;2023-02-10T13:00:51;103711.97;;;10.31;70.93
69528;BME280;57136;51.986;4.468;2023-02-10T13:03:39;103711.69;;;10.60;72.12
69528;BME280;57136;51.986;4.468;2023-02-10T13:09:15;103692.34;;;11.09;68.74
69528;BME280;57136;51.986;4.468;2023-02-10T13:12:38;103688.00;;;11.65;66.21
69528;BME280;57136;51.986;4.468;2023-02-10T13:14:45;103684.66;;;11.68;65.77
69528;BME280;57136;51.986;4.468;2023-02-10T13:17:12;103681.84;;;12.22;64.86
69528;BME280;57136;51.986;4.468;2023-02-10T13:19:39;103682.78;;;11.85;64.70
69528;BME280;57136;51.986;4.468;2023-02-10T13:22:43;103684.75;;;12.09;64.54
69528;BME280;57136;51.986;4.468;2023-02-10T13:25:16;103675.03;;;11.67;65.28
69528;BME280;57136;51.986;4.468;2023-02-10T13:36:26;103664.28;;;11.80;66.59
69528;BME280;57136;51.986;4.468;2023-02-10T13:39:04;103673.50;;;11.92;65.17
69528;BME280;57136;51.986;4.468;2023-02-10T13:41:34;103671.03;;;11.75;66.32
69528;BME280;57136;51.986;4.468;2023-02-10T13:44:25;103676.94;;;11.91;65.78
69528;BME280;57136;51.986;4.468;2023-02-10T13:52:56;103661.47;;;11.95;66.26
69528;BME280;57136;51.986;4.468;2023-02-10T13:55:39;103658.59;;;11.50;66.50
69528;BME280;57136;51.986;4.468;2023-02-10T14:00:45;103643.88;;;10.09;73.05
69528;BME280;57136;51.986;4.468;2023-02-10T14:05:38;103651.16;;;9.81;81.29
69528;BME280;57136;51.986;4.468;2023-02-10T14:08:15;103648.22;;;9.92;81.87
69528;BME280;57136;51.986;4.468;2023-02-10T14:13:43;103648.22;;;9.92;83.20
69528;BME280;57136;51.986;4.468;2023-02-10T14:18:42;103640.81;;;9.83;84.12
69528;BME280;57136;51.986;4.468;2023-02-10T14:21:09;103635.44;;;9.96;84.75
69528;BME280;57136;51.986;4.468;2023-02-10T14:23:38;103630.41;;;9.66;85.99
69528;BME280;57136;51.986;4.468;2023-02-10T14:26:15;103620.16;;;9.86;85.26
69528;BME280;57136;51.986;4.468;2023-02-10T14:28:47;103632.94;;;9.81;85.88
69528;BME280;57136;51.986;4.468;2023-02-10T14:31:39;103627.38;;;9.92;85.54
69528;BME280;57136;51.986;4.468;2023-02-10T14:34:20;103607.34;;;10.07;84.09
69528;BME280;57136;51.986;4.468;2023-02-10T14:36:54;103605.31;;;9.85;83.20
69528;BME280;57136;51.986;4.468;2023-02-10T14:39:21;103613.25;;;9.53;84.63
69528;BME280;57136;51.986;4.468;2023-02-10T14:41:47;103611.84;;;9.60;85.60